sensor_id;sensor_type;location;lat;lon;timestamp;P1;durP1;ratioP1;P2;durP2;ratioP2
15159;SDS011;7680;48.800;9.680;2023-09-18T00:03:05;5.25;;;4.85;;
15159;SDS011;7680;48.800;9.680;2023-09-18T00:08:10;5.78;;;5.25;;
15159;SDS011;7680;48.800;9.680;2023-09-18T00:13:13;6.35;;;5.32;;
15159;SDS011;7680;48.800;9.680;2023-09-18T00:18:18;4.97;;;4.68;;
15159;SDS011;7680;48.800;9.680;2023-09-18T00:23:24;5.20;;;4.80;;
15159;SDS011;7680;48.800;9.680;2023-09-18T00:28:27;4.90;;;4.50;;
15159;SDS011;7680;48.800;9.680;2023-09-18T00:33:31;5.78;;;5.22;;
15159;SDS011;7680;48.800;9.680;2023-09-18T00:38:35;6.00;;;5.50;;
15159;SDS011;7680;48.800;9.680;2023-09-18T00:43:39;5.80;;;5.30;;
15159;SDS011;7680;48.800;9.680;2023-09-18T00:48:42;6.03;;;5.47;;
15159;SDS011;7680;48.800;9.680;2023-09-18T00:53:47;5.80;;;5.38;;
15159;SDS011;7680;48.800;9.680;2023-09-18T00:58:51;5.32;;;4.90;;
15159;SDS011;7680;48.800;9.680;2023-09-18T01:03:55;6.28;;;5.78;;
15159;SDS011;7680;48.800;9.680;2023-09-18T01:09:02;5.70;;;5.20;;
15159;SDS011;7680;48.800;9.680;2023-09-18T01:14:14;5.82;;;5.32;;
15159;SDS011;7680;48.800;9.680;2023-09-18T01:19:35;5.28;;;4.90;;
15159;SDS011;7680;48.800;9.680;2023-09-18T01:24:45;5.88;;;5.38;;
15159;SDS011;7680;48.800;9.680;2023-09-18T01:29:49;5.32;;;4.93;;
15159;SDS011;7680;48.800;9.680;2023-09-18T01:34:55;6.30;;;5.22;;
15159;SDS011;7680;48.800;9.680;2023-09-18T01:40:03;5.22;;;4.82;;
15159;SDS011;7680;48.800;9.680;2023-09-18T01:45:09;5.18;;;4.78;;
15159;SDS011;7680;48.800;9.680;2023-09-18T01:50:12;5.85;;;5.35;;
15159;SDS011;7680;48.800;9.680;2023-09-18T01:55:17;7.30;;;6.60;;
15159;SDS011;7680;48.800;9.680;2023-09-18T02:00:21;6.05;;;5.25;;
15159;SDS011;7680;48.800;9.680;2023-09-18T02:05:25;5.38;;;4.97;;
15159;SDS011;7680;48.800;9.680;2023-09-18T02:10:30;5.80;;;5.30;;
15159;SDS011;7680;48.800;9.680;2023-09-18T02:15:35;6.13;;;5.63;;
15159;SDS011;7680;48.800;9.680;2023-09-18T02:20:40;5.78;;;5.38;;
15159;SDS011;7680;48.800;9.680;2023-09-18T02:25:47;5.95;;;5.28;;
15159;SDS011;7680;48.800;9.680;2023-09-18T02:30:58;5.65;;;5.20;;
15159;SDS011;7680;48.800;9.680;2023-09-18T02:36:02;5.90;;;5.25;;
15159;SDS011;7680;48.800;9.680;2023-09-18T02:41:06;6.03;;;5.50;;
15159;SDS011;7680;48.800;9.680;2023-09-18T02:46:10;5.65;;;5.18;;
15159;SDS011;7680;48.800;9.680;2023-09-18T02:51:13;5.93;;;5.43;;
15159;SDS011;7680;48.800;9.680;2023-09-18T02:56:18;7.20;;;5.85;;
15159;SDS011;7680;48.800;9.680;2023-09-18T03:01:21;6.32;;;5.82;;
15159;SDS011;7680;48.800;9.680;2023-09-18T03:06:25;6.28;;;5.75;;
15159;SDS011;7680;48.800;9.680;2023-09-18T03:11:29;6.80;;;5.78;;
15159;SDS011;7680;48.800;9.680;2023-09-18T03:16:35;6.45;;;5.25;;
15159;SDS011;7680;48.800;9.680;2023-09-18T03:21:39;5.60;;;5.10;;
15159;SDS011;7680;48.800;9.680;2023-09-18T03:26:43;6.00;;;5.50;;
15159;SDS011;7680;48.800;9.680;2023-09-18T03:31:47;5.90;;;5.40;;
15159;SDS011;7680;48.800;9.680;2023-09-18T03:36:50;5.72;;;5.32;;
15159;SDS011;7680;48.800;9.680;2023-09-18T03:41:54;7.03;;;5.78;;
15159;SDS011;7680;48.800;9.680;2023-09-18T03:46:58;6.82;;;5.53;;
15159;SDS011;7680;48.800;9.680;2023-09-18T03:52:01;6.85;;;5.47;;
15159;SDS011;7680;48.800;9.680;2023-09-18T03:57:06;6.20;;;5.60;;
15159;SDS011;7680;48.800;9.680;2023-09-18T04:02:09;6.20;;;5.50;;
15159;SDS011;7680;48.800;9.680;2023-09-18T04:07:13;6.65;;;5.65;;
15159;SDS011;7680;48.800;9.680;2023-09-18T04:12:19;6.00;;;5.40;;
15159;SDS011;7680;48.800;9.680;2023-09-18T04:17:22;6.50;;;5.53;;
15159;SDS011;7680;48.800;9.680;2023-09-18T04:22:26;6.82;;;5.60;;
15159;SDS011;7680;48.800;9.680;2023-09-18T04:27:30;6.75;;;5.90;;
15159;SDS011;7680;48.800;9.680;2023-09-18T04:32:33;5.80;;;5.30;;
15159;SDS011;7680;48.800;9.680;2023-09-18T04:37:38;5.35;;;4.95;;
15159;SDS011;7680;48.800;9.680;2023-09-18T04:42:42;5.95;;;5.03;;
15159;SDS011;7680;48.800;9.680;2023-09-18T04:47:46;6.32;;;4.72;;
15159;SDS011;7680;48.800;9.680;2023-09-18T04:52:50;5.07;;;4.63;;
15159;SDS011;7680;48.800;9.680;2023-09-18T04:57:55;6.85;;;5.38;;
15159;SDS011;7680;48.800;9.680;2023-09-18T05:02:59;5.45;;;4.95;;
15159;SDS011;7680;48.800;9.680;2023-09-18T05:08:05;5.03;;;4.63;;
15159;SDS011;7680;48.800;9.680;2023-09-18T05:13:11;6.43;;;5.30;;
15159;SDS011;7680;48.800;9.680;2023-09-18T05:18:15;5.22;;;4.47;;
15159;SDS011;7680;48.800;9.680;2023-09-18T05:23:18;7.95;;;5.43;;
15159;SDS011;7680;48.800;9.680;2023-09-18T05:28:22;6.50;;;5.80;;
15159;SDS011;7680;48.800;9.680;2023-09-18T05:33:26;5.15;;;4.72;;
15159;SDS011;7680;48.800;9.680;2023-09-18T05:38:30;5.55;;;5.13;;
15159;SDS011;7680;48.800;9.680;2023-09-18T05:43:34;6.28;;;5.68;;
15159;SDS011;7680;48.800;9.680;2023-09-18T05:48:38;5.60;;;5.00;;
15159;SDS011;7680;48.800;9.680;2023-09-18T05:53:41;5.45;;;4.95;;
15159;SDS011;7680;48.800;9.680;2023-09-18T05:58:46;5.35;;;4.45;;
15159;SDS011;7680;48.800;9.680;2023-09-18T06:03:49;5.43;;;4.25;;
15159;SDS011;7680;48.800;9.680;2023-09-18T06:08:53;6.70;;;4.70;;
15159;SDS011;7680;48.800;9.680;2023-09-18T06:13:57;5.88;;;5.25;;
15159;SDS011;7680;48.800;9.680;2023-09-18T06:19:01;7.38;;;5.60;;
15159;SDS011;7680;48.800;9.680;2023-09-18T06:24:04;5.70;;;5.20;;
15159;SDS011;7680;48.800;9.680;2023-09-18T06:29:10;6.43;;;5.30;;
15159;SDS011;7680;48.800;9.680;2023-09-18T06:34:13;6.25;;;4.38;;
15159;SDS011;7680;48.800;9.680;2023-09-18T06:39:16;5.25;;;4.68;;
15159;SDS011;7680;48.800;9.680;2023-09-18T06:44:22;5.57;;;5.00;;
15159;SDS011;7680;48.800;9.680;2023-09-18T06:49:26;6.15;;;4.75;;
15159;SDS011;7680;48.800;9.680;2023-09-18T06:54:29;5.93;;;4.50;;
15159;SDS011;7680;48.800;9.680;2023-09-18T06:59:34;5.05;;;4.65;;
15159;SDS011;7680;48.800;9.680;2023-09-18T07:04:37;5.75;;;4.47;;
15159;SDS011;7680;48.800;9.680;2023-09-18T07:09:47;5.88;;;4.70;;
15159;SDS011;7680;48.800;9.680;2023-09-18T07:15:06;6.90;;;4.72;;
15159;SDS011;7680;48.800;9.680;2023-09-18T07:20:11;8.98;;;5.28;;
15159;SDS011;7680;48.800;9.680;2023-09-18T07:25:16;5.43;;;4.57;;
15159;SDS011;7680;48.800;9.680;2023-09-18T07:30:21;6.32;;;4.65;;
15159;SDS011;7680;48.800;9.680;2023-09-18T07:35:28;4.88;;;4.15;;
15159;SDS011;7680;48.800;9.680;2023-09-18T07:40:32;5.53;;;4.55;;
15159;SDS011;7680;48.800;9.680;2023-09-18T07:45:38;5.63;;;4.50;;
15159;SDS011;7680;48.800;9.680;2023-09-18T07:50:43;7.35;;;4.38;;
15159;SDS011;7680;48.800;9.680;2023-09-18T07:55:47;5.15;;;4.07;;
15159;SDS011;7680;48.800;9.680;2023-09-18T08:00:59;6.53;;;3.70;;
15159;SDS011;7680;48.800;9.680;2023-09-18T08:06:07;5.35;;;3.20;;
15159;SDS011;7680;48.800;9.680;2023-09-18T08:11:10;7.15;;;3.65;;
15159;SDS011;7680;48.800;9.680;2023-09-18T08:16:15;5.50;;;2.55;;
15159;SDS011;7680;48.800;9.680;2023-09-18T08:21:19;5.38;;;2.70;;
15159;SDS011;7680;48.800;9.680;2023-09-18T08:26:22;3.88;;;2.58;;
15159;SDS011;7680;48.800;9.680;2023-09-18T08:31:28;5.00;;;2.47;;
15159;SDS011;7680;48.800;9.680;2023-09-18T08:36:33;7.90;;;2.90;;
15159;SDS011;7680;48.800;9.680;2023-09-18T08:41:38;5.15;;;2.25;;
15159;SDS011;7680;48.800;9.680;2023-09-18T08:46:46;4.68;;;2.35;;
15159;SDS011;7680;48.800;9.680;2023-09-18T08:51:49;5.38;;;2.50;;
15159;SDS011;7680;48.800;9.680;2023-09-18T08:56:54;6.75;;;2.53;;
15159;SDS011;7680;48.800;9.680;2023-09-18T09:01:59;6.03;;;2.20;;
15159;SDS011;7680;48.800;9.680;2023-09-18T09:07:03;5.38;;;2.10;;
15159;SDS011;7680;48.800;9.680;2023-09-18T09:12:07;3.20;;;2.35;;
15159;SDS011;7680;48.800;9.680;2023-09-18T09:17:17;3.50;;;2.30;;
15159;SDS011;7680;48.800;9.680;2023-09-18T09:22:21;8.07;;;2.40;;
15159;SDS011;7680;48.800;9.680;2023-09-18T09:27:24;4.22;;;2.30;;
15159;SDS011;7680;48.800;9.680;2023-09-18T09:32:31;4.35;;;2.13;;
15159;SDS011;7680;48.800;9.680;2023-09-18T09:37:35;5.22;;;2.00;;
15159;SDS011;7680;48.800;9.680;2023-09-18T09:42:39;3.75;;;1.88;;
15159;SDS011;7680;48.800;9.680;2023-09-18T09:47:44;3.97;;;2.30;;
15159;SDS011;7680;48.800;9.680;2023-09-18T09:52:48;4.25;;;2.25;;
15159;SDS011;7680;48.800;9.680;2023-09-18T09:57:53;5.97;;;2.40;;
15159;SDS011;7680;48.800;9.680;2023-09-18T10:03:03;4.82;;;2.00;;
15159;SDS011;7680;48.800;9.680;2023-09-18T10:08:11;3.47;;;2.05;;
15159;SDS011;7680;48.800;9.680;2023-09-18T10:13:18;4.65;;;2.40;;
15159;SDS011;7680;48.800;9.680;2023-09-18T10:18:28;4.60;;;2.85;;
15159;SDS011;7680;48.800;9.680;2023-09-18T10:23:46;6.25;;;2.60;;
15159;SDS011;7680;48.800;9.680;2023-09-18T10:29:02;4.72;;;2.50;;
15159;SDS011;7680;48.800;9.680;2023-09-18T10:34:08;3.80;;;2.50;;
15159;SDS011;7680;48.800;9.680;2023-09-18T10:39:12;3.17;;;2.10;;
15159;SDS011;7680;48.800;9.680;2023-09-18T10:44:21;4.32;;;2.30;;
15159;SDS011;7680;48.800;9.680;2023-09-18T10:49:27;5.07;;;2.45;;
15159;SDS011;7680;48.800;9.680;2023-09-18T10:54:31;3.15;;;2.00;;
15159;SDS011;7680;48.800;9.680;2023-09-18T10:59:42;2.25;;;2.00;;
15159;SDS011;7680;48.800;9.680;2023-09-18T11:04:48;3.03;;;2.08;;
15159;SDS011;7680;48.800;9.680;2023-09-18T11:09:56;3.00;;;2.45;;
15159;SDS011;7680;48.800;9.680;2023-09-18T11:15:00;2.38;;;2.17;;
15159;SDS011;7680;48.800;9.680;2023-09-18T11:20:07;3.25;;;2.30;;
15159;SDS011;7680;48.800;9.680;2023-09-18T11:25:30;4.30;;;2.33;;
15159;SDS011;7680;48.800;9.680;2023-09-18T11:30:38;2.72;;;2.30;;
15159;SDS011;7680;48.800;9.680;2023-09-18T11:35:53;5.75;;;2.30;;
15159;SDS011;7680;48.800;9.680;2023-09-18T11:40:57;3.65;;;2.50;;
15159;SDS011;7680;48.800;9.680;2023-09-18T11:46:00;4.43;;;2.28;;
15159;SDS011;7680;48.800;9.680;2023-09-18T11:51:06;4.35;;;3.38;;
15159;SDS011;7680;48.800;9.680;2023-09-18T11:56:12;4.70;;;2.70;;
15159;SDS011;7680;48.800;9.680;2023-09-18T12:01:19;2.85;;;2.20;;
15159;SDS011;7680;48.800;9.680;2023-09-18T12:06:25;1.95;;;1.80;;
15159;SDS011;7680;48.800;9.680;2023-09-18T12:11:28;3.05;;;1.95;;
15159;SDS011;7680;48.800;9.680;2023-09-18T12:16:37;1.75;;;1.60;;
15159;SDS011;7680;48.800;9.680;2023-09-18T12:21:42;4.50;;;2.00;;
15159;SDS011;7680;48.800;9.680;2023-09-18T12:26:48;2.53;;;2.08;;
15159;SDS011;7680;48.800;9.680;2023-09-18T12:31:55;4.40;;;2.38;;
15159;SDS011;7680;48.800;9.680;2023-09-18T12:37:02;3.10;;;2.20;;
15159;SDS011;7680;48.800;9.680;2023-09-18T12:42:07;2.67;;;1.75;;
15159;SDS011;7680;48.800;9.680;2023-09-18T12:47:11;1.77;;;1.63;;
15159;SDS011;7680;48.800;9.680;2023-09-18T12:52:21;3.33;;;1.70;;
15159;SDS011;7680;48.800;9.680;2023-09-18T12:57:25;2.17;;;1.52;;
15159;SDS011;7680;48.800;9.680;2023-09-18T13:02:29;2.45;;;1.70;;
15159;SDS011;7680;48.800;9.680;2023-09-18T13:07:38;3.13;;;1.83;;
15159;SDS011;7680;48.800;9.680;2023-09-18T13:12:47;2.67;;;2.03;;
15159;SDS011;7680;48.800;9.680;2023-09-18T13:17:56;2.20;;;2.00;;
15159;SDS011;7680;48.800;9.680;2023-09-18T13:23:03;2.65;;;2.00;;
15159;SDS011;7680;48.800;9.680;2023-09-18T13:28:07;2.70;;;1.77;;
15159;SDS011;7680;48.800;9.680;2023-09-18T13:33:15;2.00;;;1.90;;
15159;SDS011;7680;48.800;9.680;2023-09-18T13:38:21;3.35;;;1.80;;
15159;SDS011;7680;48.800;9.680;2023-09-18T13:43:27;2.20;;;1.95;;
15159;SDS011;7680;48.800;9.680;2023-09-18T13:48:34;3.78;;;2.70;;
15159;SDS011;7680;48.800;9.680;2023-09-18T13:53:39;4.28;;;2.10;;
15159;SDS011;7680;48.800;9.680;2023-09-18T13:58:42;4.53;;;2.00;;
15159;SDS011;7680;48.800;9.680;2023-09-18T14:03:46;2.33;;;1.38;;
15159;SDS011;7680;48.800;9.680;2023-09-18T14:08:52;1.48;;;1.38;;
15159;SDS011;7680;48.800;9.680;2023-09-18T14:13:56;2.08;;;1.52;;
15159;SDS011;7680;48.800;9.680;2023-09-18T14:18:59;1.83;;;1.70;;
15159;SDS011;7680;48.800;9.680;2023-09-18T14:24:04;1.60;;;1.50;;
15159;SDS011;7680;48.800;9.680;2023-09-18T14:29:09;2.97;;;1.55;;
15159;SDS011;7680;48.800;9.680;2023-09-18T14:34:13;2.95;;;1.55;;
15159;SDS011;7680;48.800;9.680;2023-09-18T14:39:18;2.38;;;2.00;;
15159;SDS011;7680;48.800;9.680;2023-09-18T14:44:21;3.22;;;1.70;;
15159;SDS011;7680;48.800;9.680;2023-09-18T14:49:24;3.00;;;1.40;;
15159;SDS011;7680;48.800;9.680;2023-09-18T14:54:30;2.25;;;1.35;;
15159;SDS011;7680;48.800;9.680;2023-09-18T14:59:33;1.83;;;1.73;;
15159;SDS011;7680;48.800;9.680;2023-09-18T15:04:43;2.65;;;1.77;;
15159;SDS011;7680;48.800;9.680;2023-09-18T15:09:47;2.30;;;1.70;;
15159;SDS011;7680;48.800;9.680;2023-09-18T15:14:51;3.63;;;2.10;;
15159;SDS011;7680;48.800;9.680;2023-09-18T15:19:54;2.53;;;1.98;;
15159;SDS011;7680;48.800;9.680;2023-09-18T15:24:58;2.45;;;2.00;;
15159;SDS011;7680;48.800;9.680;2023-09-18T15:30:03;1.85;;;1.73;;
15159;SDS011;7680;48.800;9.680;2023-09-18T15:35:08;2.38;;;1.90;;
15159;SDS011;7680;48.800;9.680;2023-09-18T15:40:13;2.38;;;1.65;;
15159;SDS011;7680;48.800;9.680;2023-09-18T15:45:18;3.38;;;2.30;;
15159;SDS011;7680;48.800;9.680;2023-09-18T15:50:21;2.20;;;1.60;;
15159;SDS011;7680;48.800;9.680;2023-09-18T15:55:26;2.25;;;1.65;;
15159;SDS011;7680;48.800;9.680;2023-09-18T16:00:29;2.63;;;2.03;;
15159;SDS011;7680;48.800;9.680;2023-09-18T16:05:36;1.85;;;1.73;;
15159;SDS011;7680;48.800;9.680;2023-09-18T16:10:41;2.15;;;1.67;;
15159;SDS011;7680;48.800;9.680;2023-09-18T16:15:44;2.15;;;1.70;;
15159;SDS011;7680;48.800;9.680;2023-09-18T16:20:48;2.42;;;1.77;;
15159;SDS011;7680;48.800;9.680;2023-09-18T16:25:52;1.75;;;1.65;;
15159;SDS011;7680;48.800;9.680;2023-09-18T16:30:56;1.95;;;1.70;;
15159;SDS011;7680;48.800;9.680;2023-09-18T16:36:06;1.90;;;1.67;;
15159;SDS011;7680;48.800;9.680;2023-09-18T16:41:11;3.35;;;2.00;;
15159;SDS011;7680;48.800;9.680;2023-09-18T16:46:14;3.28;;;2.30;;
15159;SDS011;7680;48.800;9.680;2023-09-18T16:51:18;2.10;;;1.90;;
15159;SDS011;7680;48.800;9.680;2023-09-18T16:56:23;2.45;;;2.00;;
15159;SDS011;7680;48.800;9.680;2023-09-18T17:01:26;2.40;;;1.95;;
15159;SDS011;7680;48.800;9.680;2023-09-18T17:06:29;3.63;;;2.30;;
15159;SDS011;7680;48.800;9.680;2023-09-18T17:11:37;2.25;;;1.92;;
15159;SDS011;7680;48.800;9.680;2023-09-18T17:16:41;3.92;;;2.15;;
15159;SDS011;7680;48.800;9.680;2023-09-18T17:21:44;3.40;;;2.20;;
15159;SDS011;7680;48.800;9.680;2023-09-18T17:26:49;3.05;;;2.42;;
15159;SDS011;7680;48.800;9.680;2023-09-18T17:31:53;3.03;;;2.72;;
15159;SDS011;7680;48.800;9.680;2023-09-18T17:36:56;2.78;;;2.28;;
15159;SDS011;7680;48.800;9.680;2023-09-18T17:42:01;2.75;;;2.50;;
15159;SDS011;7680;48.800;9.680;2023-09-18T17:47:04;4.18;;;2.50;;
15159;SDS011;7680;48.800;9.680;2023-09-18T17:52:07;3.80;;;2.40;;
15159;SDS011;7680;48.800;9.680;2023-09-18T17:57:14;3.45;;;2.65;;
15159;SDS011;7680;48.800;9.680;2023-09-18T18:02:17;2.67;;;2.40;;
15159;SDS011;7680;48.800;9.680;2023-09-18T18:07:21;3.63;;;2.70;;
15159;SDS011;7680;48.800;9.680;2023-09-18T18:12:25;2.97;;;2.53;;
15159;SDS011;7680;48.800;9.680;2023-09-18T18:17:28;3.25;;;2.47;;
15159;SDS011;7680;48.800;9.680;2023-09-18T18:22:32;3.95;;;2.55;;
15159;SDS011;7680;48.800;9.680;2023-09-18T18:27:37;2.80;;;2.55;;
15159;SDS011;7680;48.800;9.680;2023-09-18T18:32:41;3.42;;;2.42;;
15159;SDS011;7680;48.800;9.680;2023-09-18T18:37:44;2.35;;;2.15;;
15159;SDS011;7680;48.800;9.680;2023-09-18T18:42:50;3.70;;;2.58;;
15159;SDS011;7680;48.800;9.680;2023-09-18T18:47:54;3.72;;;2.40;;
15159;SDS011;7680;48.800;9.680;2023-09-18T18:52:59;2.05;;;1.85;;
15159;SDS011;7680;48.800;9.680;2023-09-18T18:58:04;3.47;;;1.95;;
15159;SDS011;7680;48.800;9.680;2023-09-18T19:03:08;2.72;;;2.35;;
15159;SDS011;7680;48.800;9.680;2023-09-18T19:08:11;3.05;;;2.45;;
15159;SDS011;7680;48.800;9.680;2023-09-18T19:13:16;3.05;;;2.20;;
15159;SDS011;7680;48.800;9.680;2023-09-18T19:18:19;3.50;;;2.22;;
15159;SDS011;7680;48.800;9.680;2023-09-18T19:23:24;3.10;;;2.20;;
15159;SDS011;7680;48.800;9.680;2023-09-18T19:28:29;3.17;;;2.40;;
15159;SDS011;7680;48.800;9.680;2023-09-18T19:33:32;3.00;;;2.40;;
15159;SDS011;7680;48.800;9.680;2023-09-18T19:38:40;4.68;;;2.78;;
15159;SDS011;7680;48.800;9.680;2023-09-18T19:43:45;3.53;;;2.55;;
15159;SDS011;7680;48.800;9.680;2023-09-18T19:48:48;3.15;;;2.67;;
15159;SDS011;7680;48.800;9.680;2023-09-18T19:53:52;3.13;;;2.50;;
15159;SDS011;7680;48.800;9.680;2023-09-18T19:58:57;3.08;;;2.88;;
15159;SDS011;7680;48.800;9.680;2023-09-18T20:04:01;4.53;;;4.13;;
15159;SDS011;7680;48.800;9.680;2023-09-18T20:09:06;3.08;;;2.75;;
15159;SDS011;7680;48.800;9.680;2023-09-18T20:14:12;2.75;;;2.50;;
15159;SDS011;7680;48.800;9.680;2023-09-18T20:19:29;5.13;;;3.67;;
15159;SDS011;7680;48.800;9.680;2023-09-18T20:24:32;2.92;;;2.67;;
15159;SDS011;7680;48.800;9.680;2023-09-18T20:29:37;4.38;;;2.72;;
15159;SDS011;7680;48.800;9.680;2023-09-18T20:34:41;3.90;;;2.70;;
15159;SDS011;7680;48.800;9.680;2023-09-18T20:39:44;2.95;;;2.53;;
15159;SDS011;7680;48.800;9.680;2023-09-18T20:44:49;3.47;;;3.17;;
15159;SDS011;7680;48.800;9.680;2023-09-18T20:49:54;4.05;;;3.10;;
15159;SDS011;7680;48.800;9.680;2023-09-18T20:54:57;4.55;;;3.10;;
15159;SDS011;7680;48.800;9.680;2023-09-18T21:00:03;3.20;;;2.90;;
15159;SDS011;7680;48.800;9.680;2023-09-18T21:05:08;3.38;;;2.92;;
15159;SDS011;7680;48.800;9.680;2023-09-18T21:10:11;4.13;;;3.20;;
15159;SDS011;7680;48.800;9.680;2023-09-18T21:15:16;3.00;;;2.80;;
15159;SDS011;7680;48.800;9.680;2023-09-18T21:20:20;3.33;;;2.55;;
15159;SDS011;7680;48.800;9.680;2023-09-18T21:25:23;3.25;;;2.80;;
15159;SDS011;7680;48.800;9.680;2023-09-18T21:30:28;2.72;;;2.53;;
15159;SDS011;7680;48.800;9.680;2023-09-18T21:35:32;3.35;;;2.72;;
15159;SDS011;7680;48.800;9.680;2023-09-18T21:40:36;3.10;;;2.58;;
15159;SDS011;7680;48.800;9.680;2023-09-18T21:45:41;4.10;;;3.25;;
15159;SDS011;7680;48.800;9.680;2023-09-18T21:50:45;3.55;;;3.00;;
15159;SDS011;7680;48.800;9.680;2023-09-18T21:55:48;2.83;;;2.53;;
15159;SDS011;7680;48.800;9.680;2023-09-18T22:00:57;3.03;;;2.72;;
15159;SDS011;7680;48.800;9.680;2023-09-18T22:06:02;3.13;;;2.53;;
15159;SDS011;7680;48.800;9.680;2023-09-18T22:11:06;3.17;;;2.78;;
15159;SDS011;7680;48.800;9.680;2023-09-18T22:16:11;2.83;;;2.50;;
15159;SDS011;7680;48.800;9.680;2023-09-18T22:21:16;2.83;;;2.20;;
15159;SDS011;7680;48.800;9.680;2023-09-18T22:26:20;4.10;;;2.58;;
15159;SDS011;7680;48.800;9.680;2023-09-18T22:31:24;3.30;;;2.40;;
15159;SDS011;7680;48.800;9.680;2023-09-18T22:36:28;2.67;;;2.25;;
15159;SDS011;7680;48.800;9.680;2023-09-18T22:57:43;2.47;;;2.20;;
15159;SDS011;7680;48.800;9.680;2023-09-18T23:02:49;2.50;;;2.20;;
15159;SDS011;7680;48.800;9.680;2023-09-18T23:07:54;2.85;;;1.90;;
15159;SDS011;7680;48.800;9.680;2023-09-18T23:13:05;1.60;;;1.38;;
15159;SDS011;7680;48.800;9.680;2023-09-18T23:18:11;2.47;;;1.60;;
15159;SDS011;7680;48.800;9.680;2023-09-18T23:23:18;2.05;;;1.75;;
15159;SDS011;7680;48.800;9.680;2023-09-18T23:28:23;2.70;;;1.73;;
15159;SDS011;7680;48.800;9.680;2023-09-18T23:33:28;2.00;;;1.88;;
15159;SDS011;7680;48.800;9.680;2023-09-18T23:38:31;1.50;;;1.40;;
15159;SDS011;7680;48.800;9.680;2023-09-18T23:43:36;1.90;;;1.65;;
15159;SDS011;7680;48.800;9.680;2023-09-18T23:48:39;1.83;;;1.73;;
15159;SDS011;7680;48.800;9.680;2023-09-18T23:53:43;1.70;;;1.60;;
15159;SDS011;7680;48.800;9.680;2023-09-18T23:58:48;2.05;;;1.63;;
